createdAt,value
2018-01-14T00:01:54.765Z,18.00
2018-01-14T00:04:22.825Z,17.90
2018-01-14T00:06:50.853Z,17.90
2018-01-14T00:09:18.766Z,18.00
2018-01-14T00:11:46.816Z,18.00
2018-01-14T00:14:14.707Z,18.00
2018-01-14T00:16:42.798Z,17.90
2018-01-14T00:19:10.862Z,17.90
2018-01-14T00:21:38.806Z,17.90
2018-01-14T00:24:06.719Z,17.90
2018-01-14T00:26:36.613Z,17.90
2018-01-14T00:29:04.549Z,17.90
2018-01-14T00:31:32.456Z,17.90
2018-01-14T00:34:00.480Z,17.90
2018-01-14T00:36:28.468Z,17.90
2018-01-14T00:38:56.388Z,17.90
2018-01-14T00:41:25.288Z,17.90
2018-01-14T00:43:53.920Z,17.80
2018-01-14T00:46:21.889Z,17.80
2018-01-14T00:48:49.969Z,17.80
2018-01-14T00:51:17.913Z,17.80
2018-01-14T00:53:45.815Z,17.90
2018-01-14T00:56:13.964Z,17.80
2018-01-14T00:58:41.888Z,17.80
2018-01-14T01:01:10.556Z,17.80
2018-01-14T01:03:38.613Z,17.80
2018-01-14T01:06:06.564Z,17.80
2018-01-14T01:08:34.519Z,17.80
2018-01-14T01:11:02.584Z,17.80
2018-01-14T01:13:30.548Z,17.70
2018-01-14T01:15:58.556Z,17.70
2018-01-14T01:18:26.651Z,17.80
2018-01-14T01:20:54.564Z,17.70
2018-01-14T01:23:22.493Z,17.60
2018-01-14T01:25:50.545Z,17.60
2018-01-14T01:28:18.481Z,17.60
2018-01-14T01:30:46.395Z,17.60
2018-01-14T01:33:14.468Z,17.60
2018-01-14T01:35:42.403Z,17.60
2018-01-14T01:38:10.336Z,17.70
2018-01-14T01:40:39.117Z,17.70
2018-01-14T01:43:07.216Z,17.70
2018-01-14T01:45:35.907Z,17.70
2018-01-14T01:48:03.954Z,17.70
2018-01-14T01:50:32.690Z,17.50
2018-01-14T01:53:00.596Z,17.50
2018-01-14T01:55:28.653Z,17.60
2018-01-14T01:57:56.576Z,17.60
2018-01-14T02:00:25.213Z,17.50
2018-01-14T02:02:53.459Z,17.50
2018-01-14T02:05:21.383Z,17.60
2018-01-14T02:07:49.300Z,17.50
2018-01-14T02:10:17.347Z,17.50
2018-01-14T02:12:45.996Z,17.50
2018-01-14T02:15:13.917Z,17.50
2018-01-14T02:17:41.975Z,17.60
2018-01-14T02:20:10.773Z,17.50
2018-01-14T02:22:39.595Z,17.50
2018-01-14T02:25:07.668Z,17.60
2018-01-14T02:27:35.637Z,17.50
2018-01-14T02:30:03.604Z,17.50
2018-01-14T02:32:31.672Z,17.50
2018-01-14T02:34:59.572Z,17.50
2018-01-14T02:37:27.601Z,17.50
2018-01-14T02:39:55.643Z,17.50
2018-01-14T02:42:24.317Z,17.50
2018-01-14T02:44:52.365Z,17.40
2018-01-14T02:47:20.449Z,17.50
2018-01-14T02:49:48.381Z,17.40
2018-01-14T02:52:16.321Z,17.40
2018-01-14T02:54:45.116Z,17.30
2018-01-14T02:57:13.772Z,17.40
2018-01-14T02:59:41.698Z,17.30
2018-01-14T03:02:11.129Z,17.40
2018-01-14T03:04:39.122Z,17.40
2018-01-14T03:07:07.141Z,17.40
2018-01-14T03:09:35.211Z,17.50
2018-01-14T03:12:03.129Z,17.40
2018-01-14T03:14:31.075Z,17.50
2018-01-14T03:16:59.144Z,17.50
2018-01-14T03:19:27.108Z,17.50
2018-01-14T03:21:55.045Z,17.50
2018-01-14T03:24:23.856Z,17.60
2018-01-14T03:26:51.876Z,17.60
2018-01-14T03:29:19.773Z,17.70
2018-01-14T03:31:48.609Z,17.70
2018-01-14T03:34:16.514Z,17.70
2018-01-14T03:36:44.544Z,17.80
2018-01-14T03:39:12.613Z,17.80
2018-01-14T03:41:40.540Z,17.90
2018-01-14T03:44:09.215Z,18.20
2018-01-14T03:46:38.135Z,18.40
2018-01-14T03:49:06.048Z,18.40
2018-01-14T03:51:33.965Z,18.50
2018-01-14T03:54:02.748Z,18.90
2018-01-14T03:56:31.480Z,19.70
2018-01-14T03:58:59.437Z,19.70
2018-01-14T04:01:27.477Z,20.70
2018-01-14T04:03:56.150Z,21.90
2018-01-14T04:06:24.094Z,21.90
2018-01-14T04:08:52.151Z,22.40
2018-01-14T04:11:20.097Z,23.10
2018-01-14T04:13:47.999Z,23.60
2018-01-14T04:16:16.105Z,23.20
2018-01-14T04:18:44.143Z,22.30
2018-01-14T04:21:12.065Z,21.40
2018-01-14T04:23:40.996Z,20.70
2018-01-14T04:26:09.077Z,20.70
2018-01-14T04:28:36.984Z,20.60
2018-01-14T04:31:05.809Z,20.70
2018-01-14T04:33:33.711Z,20.70
2018-01-14T04:36:01.689Z,20.70
2018-01-14T04:38:29.736Z,20.70
2018-01-14T04:40:57.650Z,20.70
2018-01-14T04:43:25.561Z,20.60
2018-01-14T04:45:53.617Z,20.80
2018-01-14T04:48:22.431Z,20.90
2018-01-14T04:50:50.361Z,20.90
2018-01-14T04:53:19.171Z,21.40
2018-01-14T04:55:47.799Z,21.50
2018-01-14T04:58:15.708Z,21.50
2018-01-14T05:00:44.525Z,22.00
2018-01-14T05:03:12.457Z,22.00
2018-01-14T05:05:40.421Z,22.10
2018-01-14T05:08:08.462Z,22.20
2018-01-14T05:10:36.376Z,22.10
2018-01-14T05:13:05.032Z,22.40
2018-01-14T05:15:33.085Z,22.30
2018-01-14T05:18:01.014Z,22.40
2018-01-14T05:20:29.652Z,22.70
2018-01-14T05:22:57.704Z,22.60
2018-01-14T05:25:25.621Z,22.80
2018-01-14T05:27:53.544Z,22.80
2018-01-14T05:30:21.616Z,22.80
2018-01-14T05:32:49.543Z,22.80
2018-01-14T05:35:17.602Z,22.90
2018-01-14T05:37:45.636Z,23.10
2018-01-14T05:40:13.549Z,23.00
2018-01-14T05:42:41.489Z,23.10
2018-01-14T05:45:09.545Z,23.20
2018-01-14T05:47:37.476Z,23.30
2018-01-14T05:50:06.304Z,23.30
2018-01-14T05:52:34.332Z,23.20
2018-01-14T05:55:03.008Z,23.40
2018-01-14T05:57:30.916Z,23.40
2018-01-14T05:59:58.970Z,23.50
2018-01-14T06:02:27.631Z,23.60
2018-01-14T06:04:55.563Z,23.60
2018-01-14T06:07:23.781Z,24.00
2018-01-14T06:09:51.696Z,24.40
2018-01-14T06:12:19.613Z,24.80
2018-01-14T06:14:47.649Z,24.90
2018-01-14T06:17:15.573Z,25.00
2018-01-14T06:19:44.248Z,24.70
2018-01-14T06:22:12.293Z,24.70
2018-01-14T06:24:40.261Z,24.70
2018-01-14T06:27:09.251Z,24.60
2018-01-14T06:29:37.316Z,24.60
2018-01-14T06:32:05.246Z,24.70
2018-01-14T06:34:33.930Z,24.50
2018-01-14T06:37:02.823Z,24.70
2018-01-14T06:39:35.400Z,24.70
2018-01-14T06:42:05.088Z,24.70
2018-01-14T06:44:33.049Z,24.80
2018-01-14T06:47:01.101Z,25.00
2018-01-14T06:49:29.181Z,24.90
2018-01-14T06:51:57.259Z,25.00
2018-01-14T06:54:25.209Z,24.70
2018-01-14T06:56:53.309Z,24.60
2018-01-14T06:59:21.238Z,24.80
2018-01-14T07:01:49.166Z,25.30
2018-01-14T07:04:17.205Z,25.20
2018-01-14T07:06:45.200Z,25.10
2018-01-14T07:09:13.133Z,25.00
2018-01-14T07:11:41.190Z,25.00
2018-01-14T07:14:09.141Z,25.10
2018-01-14T07:16:37.862Z,25.30
2018-01-14T07:19:05.953Z,25.30
2018-01-14T07:21:33.890Z,25.20
2018-01-14T07:24:01.816Z,25.20
2018-01-14T07:26:29.990Z,25.20
2018-01-14T07:28:57.953Z,25.50
2018-01-14T07:31:25.924Z,25.50
2018-01-14T07:33:54.029Z,25.10
2018-01-14T07:36:22.816Z,25.30
2018-01-14T07:38:51.505Z,25.60
2018-01-14T07:41:20.343Z,25.80
2018-01-14T07:43:48.284Z,25.80
2018-01-14T07:46:16.264Z,25.60
2018-01-14T07:48:44.359Z,25.20
2018-01-14T07:51:12.346Z,24.50
2018-01-14T07:53:40.442Z,24.80
2018-01-14T07:56:08.658Z,25.20
2018-01-14T07:58:36.629Z,25.50
2018-01-14T08:01:04.572Z,25.50
2018-01-14T08:03:33.377Z,25.40
2018-01-14T08:06:01.400Z,25.40
2018-01-14T08:08:29.342Z,25.60
2018-01-14T08:10:57.416Z,25.80
2018-01-14T08:13:25.376Z,25.80
2018-01-14T08:15:53.382Z,25.80
2018-01-14T08:18:21.490Z,26.00
2018-01-14T08:20:50.173Z,25.90
2018-01-14T08:23:18.884Z,26.10
2018-01-14T08:25:46.997Z,26.00
2018-01-14T08:28:14.956Z,26.20
2018-01-14T08:30:43.074Z,26.40
2018-01-14T08:33:11.160Z,26.50
2018-01-14T08:35:39.854Z,25.90
2018-01-14T08:38:08.564Z,26.00
2018-01-14T08:40:36.661Z,25.90
2018-01-14T08:43:04.629Z,26.30
2018-01-14T08:45:32.646Z,26.10
2018-01-14T08:48:01.461Z,25.90
2018-01-14T08:50:29.430Z,26.00
2018-01-14T08:52:57.367Z,25.80
2018-01-14T08:55:25.567Z,26.00
2018-01-14T08:57:54.262Z,26.00
2018-01-14T09:00:22.254Z,26.00
2018-01-14T09:02:52.265Z,26.30
2018-01-14T09:05:20.221Z,26.20
2018-01-14T09:07:48.194Z,26.10
2018-01-14T09:10:16.291Z,26.00
2018-01-14T09:12:44.238Z,25.90
2018-01-14T09:15:12.222Z,25.90
2018-01-14T09:17:40.331Z,26.10
2018-01-14T09:20:08.345Z,26.00
2018-01-14T09:22:37.078Z,26.00
2018-01-14T09:25:05.171Z,26.00
2018-01-14T09:27:33.120Z,26.30
2018-01-14T09:30:01.098Z,26.20
2018-01-14T09:32:29.167Z,25.90
2018-01-14T09:34:57.128Z,25.90
2018-01-14T09:37:25.097Z,26.40
2018-01-14T09:39:53.185Z,26.60
2018-01-14T09:42:21.147Z,26.40
2018-01-14T09:44:49.103Z,26.30
2018-01-14T09:47:17.191Z,26.50
2018-01-14T09:49:45.168Z,26.40
2018-01-14T09:52:13.251Z,26.50
2018-01-14T09:54:41.350Z,26.50
2018-01-14T09:57:10.338Z,26.50
2018-01-14T09:59:38.307Z,26.40
2018-01-14T10:02:06.380Z,26.50
2018-01-14T10:04:34.331Z,26.40
2018-01-14T10:07:02.412Z,26.50
2018-01-14T10:09:30.485Z,26.50
2018-01-14T10:11:58.455Z,26.50
2018-01-14T10:14:26.418Z,26.30
2018-01-14T10:16:54.649Z,26.20
2018-01-14T10:19:22.631Z,26.20
2018-01-14T10:21:50.592Z,26.10
2018-01-14T10:24:18.686Z,26.20
2018-01-14T10:26:46.690Z,26.10
2018-01-14T10:29:14.673Z,26.00
2018-01-14T10:31:43.496Z,25.80
2018-01-14T10:34:11.513Z,25.80
2018-01-14T10:36:39.581Z,25.80
2018-01-14T10:39:07.650Z,25.90
2018-01-14T10:41:35.622Z,26.00
2018-01-14T10:44:03.615Z,25.90
2018-01-14T10:46:31.799Z,26.00
2018-01-14T10:49:00.514Z,26.00
2018-01-14T10:51:28.469Z,25.90
2018-01-14T10:53:57.311Z,25.70
2018-01-14T10:56:25.266Z,25.70
2018-01-14T10:58:53.338Z,25.60
2018-01-14T11:01:27.055Z,25.50
2018-01-14T11:03:55.020Z,25.50
2018-01-14T11:06:23.030Z,25.40
2018-01-14T11:08:51.109Z,25.50
2018-01-14T11:11:19.842Z,25.40
2018-01-14T11:13:47.792Z,25.40
2018-01-14T11:16:16.603Z,25.40
2018-01-14T11:18:44.620Z,25.40
2018-01-14T11:21:12.605Z,25.40
2018-01-14T11:23:41.419Z,25.40
2018-01-14T11:26:09.382Z,25.40
2018-01-14T11:28:40.106Z,25.40
2018-01-14T11:31:08.924Z,25.40
2018-01-14T11:33:36.904Z,25.40
2018-01-14T11:36:04.887Z,25.40
2018-01-14T11:38:32.959Z,25.30
2018-01-14T11:41:00.931Z,25.20
2018-01-14T11:43:28.910Z,25.20
2018-01-14T11:45:56.996Z,25.30
2018-01-14T11:48:24.955Z,25.30
2018-01-14T11:50:52.906Z,25.20
2018-01-14T11:53:21.018Z,25.20
2018-01-14T11:55:48.980Z,25.10
2018-01-14T11:58:16.929Z,25.10
2018-01-14T12:00:45.161Z,25.10
2018-01-14T12:03:13.878Z,24.70
2018-01-14T12:05:41.812Z,24.70
2018-01-14T12:08:10.625Z,24.80
2018-01-14T12:10:38.613Z,24.80
2018-01-14T12:13:06.587Z,24.80
2018-01-14T12:15:34.681Z,24.80
2018-01-14T12:18:02.665Z,24.80
2018-01-14T12:20:30.638Z,24.60
2018-01-14T12:22:58.729Z,24.50
2018-01-14T12:25:27.434Z,24.60
2018-01-14T12:27:55.421Z,24.60
2018-01-14T12:30:23.495Z,24.60
2018-01-14T12:33:08.310Z,24.70
2018-01-14T12:35:36.377Z,24.70
2018-01-14T12:38:04.363Z,24.50
2018-01-14T12:40:32.307Z,24.50
2018-01-14T12:43:00.419Z,24.90
2018-01-14T12:45:29.148Z,24.80
2018-01-14T12:47:57.122Z,24.80
2018-01-14T12:50:25.237Z,24.80
2018-01-14T12:52:53.185Z,24.80
2018-01-14T12:55:21.188Z,24.80
2018-01-14T12:57:49.994Z,24.70
2018-01-14T13:00:18.689Z,24.70
2018-01-14T13:02:46.789Z,24.70
2018-01-14T13:05:14.860Z,24.70
2018-01-14T13:07:42.847Z,24.60
2018-01-14T13:10:10.832Z,24.50
2018-01-14T13:12:38.934Z,24.40
2018-01-14T13:15:07.619Z,24.40
2018-01-14T13:17:36.301Z,24.30
2018-01-14T13:20:05.122Z,24.30
2018-01-14T13:22:33.099Z,24.30
2018-01-14T13:25:01.062Z,24.30
2018-01-14T13:27:29.229Z,24.20
2018-01-14T13:29:57.198Z,24.20
2018-01-14T13:32:25.177Z,24.10
2018-01-14T13:34:53.270Z,24.10
2018-01-14T13:37:21.218Z,24.00
2018-01-14T13:39:49.159Z,24.00
2018-01-14T13:42:17.988Z,23.80
2018-01-14T13:44:45.960Z,23.80
2018-01-14T13:47:13.925Z,23.80
2018-01-14T13:49:42.089Z,23.80
2018-01-14T13:52:10.070Z,23.70
2018-01-14T13:54:38.062Z,23.50
2018-01-14T13:57:06.185Z,23.50
2018-01-14T13:59:34.225Z,23.50
2018-01-14T14:02:02.279Z,23.50
2018-01-14T14:04:30.475Z,23.50
2018-01-14T14:06:58.582Z,23.60
2018-01-14T14:09:27.271Z,23.50
2018-01-14T14:11:56.203Z,23.40
2018-01-14T14:14:24.190Z,23.40
2018-01-14T14:16:52.172Z,23.40
2018-01-14T14:19:20.244Z,23.40
2018-01-14T14:21:48.188Z,23.40
2018-01-14T14:24:16.143Z,23.40
2018-01-14T14:26:45.218Z,23.40
2018-01-14T14:29:14.352Z,23.30
2018-01-14T14:31:42.331Z,23.30
2018-01-14T14:34:10.429Z,23.30
2018-01-14T14:36:38.507Z,23.30
2018-01-14T14:39:06.497Z,23.40
2018-01-14T14:41:34.584Z,23.30
2018-01-14T14:44:03.302Z,23.20
2018-01-14T14:46:31.283Z,23.20
2018-01-14T14:48:59.380Z,23.30
2018-01-14T14:51:27.338Z,23.30
2018-01-14T14:53:55.301Z,23.30
2018-01-14T14:56:23.454Z,23.30
2018-01-14T14:58:51.449Z,23.30
2018-01-14T15:01:19.425Z,23.30
2018-01-14T15:03:47.522Z,23.30
2018-01-14T15:06:15.918Z,23.30
2018-01-14T15:08:44.627Z,23.30
2018-01-14T15:11:12.740Z,23.30
2018-01-14T15:13:40.683Z,23.30
2018-01-14T15:16:08.640Z,23.20
2018-01-14T15:18:36.735Z,23.20
2018-01-14T15:21:04.702Z,23.20
2018-01-14T15:23:32.643Z,23.20
2018-01-14T15:26:00.792Z,23.20
2018-01-14T15:28:28.760Z,23.20
2018-01-14T15:30:56.722Z,23.10
2018-01-14T15:33:24.855Z,23.00
2018-01-14T15:35:52.881Z,23.00
2018-01-14T15:38:20.971Z,23.00
2018-01-14T15:40:49.801Z,23.00
2018-01-14T15:43:17.788Z,23.00
2018-01-14T15:45:46.068Z,23.00
2018-01-14T15:48:14.155Z,23.10
2018-01-14T15:50:42.159Z,23.10
2018-01-14T15:53:10.861Z,23.00
2018-01-14T15:55:39.031Z,23.00
2018-01-14T15:58:07.031Z,23.00
2018-01-14T16:00:34.987Z,22.90
2018-01-14T16:03:03.097Z,22.90
2018-01-14T16:05:31.038Z,22.90
2018-01-14T16:07:59.139Z,22.90
2018-01-14T16:10:27.220Z,22.90
2018-01-14T16:12:55.190Z,22.80
2018-01-14T16:15:23.265Z,22.80
2018-01-14T16:17:51.357Z,22.80
2018-01-14T16:20:20.065Z,22.80
2018-01-14T16:22:48.079Z,22.80
2018-01-14T16:25:16.170Z,22.80
2018-01-14T16:27:44.165Z,22.80
2018-01-14T16:30:13.178Z,22.70
2018-01-14T16:32:41.354Z,22.70
2018-01-14T16:35:09.308Z,22.70
2018-01-14T16:37:38.434Z,22.70
2018-01-14T16:40:06.539Z,22.70
2018-01-14T16:42:34.905Z,22.70
2018-01-14T16:45:03.743Z,22.60
2018-01-14T16:47:33.172Z,22.60
2018-01-14T16:50:01.362Z,22.60
2018-01-14T16:52:31.429Z,22.70
2018-01-14T16:54:59.577Z,22.60
2018-01-14T16:57:28.109Z,22.60
2018-01-14T16:59:56.149Z,22.60
2018-01-14T17:02:24.273Z,22.70
2018-01-14T17:04:53.764Z,22.60
2018-01-14T17:07:22.650Z,22.60
2018-01-14T17:09:51.608Z,22.60
2018-01-14T17:12:19.587Z,22.60
2018-01-14T17:14:47.698Z,22.60
2018-01-14T17:17:15.796Z,22.50
2018-01-14T17:19:43.774Z,22.50
2018-01-14T17:22:11.765Z,22.60
2018-01-14T17:24:39.902Z,22.50
2018-01-14T17:27:07.988Z,22.50
2018-01-14T17:29:36.143Z,22.50
2018-01-14T17:32:04.320Z,22.50
2018-01-14T17:34:32.280Z,22.40
2018-01-14T17:37:01.063Z,22.40
2018-01-14T17:39:29.888Z,22.40
2018-01-14T17:41:57.867Z,22.40
2018-01-14T17:44:25.832Z,22.40
2018-01-14T17:46:53.962Z,22.40
2018-01-14T17:49:22.661Z,22.40
2018-01-14T17:51:51.396Z,22.30
2018-01-14T17:54:19.532Z,22.30
2018-01-14T17:56:47.625Z,22.20
2018-01-14T17:59:15.628Z,22.20
2018-01-14T18:01:43.872Z,22.30
2018-01-14T18:04:11.867Z,22.30
2018-01-14T18:06:39.893Z,22.30
2018-01-14T18:09:08.740Z,22.20
2018-01-14T18:11:36.895Z,22.20
2018-01-14T18:14:04.886Z,22.20
2018-01-14T18:16:33.145Z,22.20
2018-01-14T18:19:01.155Z,22.20
2018-01-14T18:21:29.114Z,22.20
2018-01-14T18:23:57.316Z,22.10
2018-01-14T18:26:26.153Z,21.90
2018-01-14T18:28:54.174Z,21.80
2018-01-14T18:31:23.109Z,21.70
2018-01-14T18:33:51.388Z,21.70
2018-01-14T18:36:19.525Z,21.70
2018-01-14T18:38:49.246Z,21.70
2018-01-14T18:41:17.386Z,21.70
2018-01-14T18:43:45.678Z,21.70
2018-01-14T18:46:14.952Z,21.60
2018-01-14T18:48:43.002Z,21.60
2018-01-14T18:51:11.197Z,21.60
2018-01-14T18:53:40.140Z,21.70
2018-01-14T18:56:08.259Z,21.60
2018-01-14T18:58:36.315Z,21.50
2018-01-14T19:01:04.697Z,21.50
2018-01-14T19:03:32.893Z,21.40
2018-01-14T19:06:01.289Z,21.50
2018-01-14T19:08:29.495Z,21.50
2018-01-14T19:10:58.214Z,21.30
2018-01-14T19:13:26.419Z,21.30
2018-01-14T19:15:54.646Z,21.30
2018-01-14T19:18:23.665Z,21.20
2018-01-14T19:20:52.225Z,21.30
2018-01-14T19:23:21.813Z,21.20
2018-01-14T19:25:50.643Z,21.30
2018-01-14T19:28:20.219Z,21.30
2018-01-14T19:30:49.617Z,21.20
2018-01-14T19:33:18.332Z,21.20
2018-01-14T19:35:47.596Z,21.20
2018-01-14T19:38:19.906Z,21.10
2018-01-14T19:40:49.590Z,21.10
2018-01-14T19:43:19.380Z,21.10
2018-01-14T19:45:48.699Z,21.10
2018-01-14T19:48:16.798Z,21.10
2018-01-14T19:50:45.711Z,21.00
2018-01-14T19:53:13.799Z,21.00
2018-01-14T19:55:42.041Z,20.90
2018-01-14T19:58:10.040Z,20.90
2018-01-14T20:00:38.533Z,20.90
2018-01-14T20:03:06.517Z,20.80
2018-01-14T20:05:34.501Z,20.80
2018-01-14T20:08:02.927Z,20.80
2018-01-14T20:10:30.870Z,20.80
2018-01-14T20:12:59.570Z,20.70
2018-01-14T20:15:27.797Z,20.70
2018-01-14T20:17:55.781Z,20.70
2018-01-14T20:20:23.721Z,20.70
2018-01-14T20:22:51.832Z,20.70
2018-01-14T20:25:19.805Z,20.60
2018-01-14T20:27:48.534Z,20.50
2018-01-14T20:30:16.627Z,20.50
2018-01-14T20:32:44.746Z,20.50
2018-01-14T20:35:13.470Z,20.40
2018-01-14T20:37:41.695Z,20.40
2018-01-14T20:40:09.648Z,20.50
2018-01-14T20:42:37.596Z,20.40
2018-01-14T20:45:05.725Z,20.40
2018-01-14T20:47:34.457Z,20.30
2018-01-14T20:50:02.434Z,20.40
2018-01-14T20:52:30.529Z,20.30
2018-01-14T20:54:58.497Z,20.30
2018-01-14T20:57:26.469Z,20.20
2018-01-14T20:59:54.560Z,20.20
2018-01-14T21:02:22.555Z,20.10
2018-01-14T21:04:51.250Z,20.10
2018-01-14T21:07:19.455Z,20.10
2018-01-14T21:09:47.783Z,20.10
2018-01-14T21:12:16.330Z,20.10
2018-01-14T21:14:44.671Z,20.10
2018-01-14T21:17:13.125Z,20.00
2018-01-14T21:19:41.166Z,20.00
2018-01-14T21:22:09.238Z,20.00
2018-01-14T21:24:37.207Z,20.00
2018-01-14T21:27:05.197Z,20.10
2018-01-14T21:29:33.270Z,20.00
2018-01-14T21:32:01.219Z,20.00
2018-01-14T21:34:29.151Z,20.00
2018-01-14T21:36:57.322Z,20.00
2018-01-14T21:39:25.333Z,19.90
2018-01-14T21:41:53.306Z,19.90
2018-01-14T21:44:21.395Z,19.90
2018-01-14T21:46:49.469Z,19.90
2018-01-14T21:49:17.525Z,19.80
2018-01-14T21:51:45.594Z,19.90
2018-01-14T21:54:13.556Z,19.80
2018-01-14T21:56:41.549Z,19.80
2018-01-14T21:59:09.638Z,19.80
2018-01-14T22:01:37.596Z,19.70
2018-01-14T22:04:05.561Z,19.70
2018-01-14T22:06:33.910Z,19.70
2018-01-14T22:09:01.843Z,19.60
2018-01-14T22:11:30.512Z,19.50
2018-01-14T22:13:58.599Z,19.50
2018-01-14T22:16:27.364Z,19.50
2018-01-14T22:18:55.468Z,19.50
2018-01-14T22:21:24.283Z,19.50
2018-01-14T22:23:52.250Z,19.50
2018-01-14T22:26:20.293Z,19.50
2018-01-14T22:28:49.126Z,19.40
2018-01-14T22:31:17.075Z,19.40
2018-01-14T22:33:45.773Z,19.30
2018-01-14T22:36:13.854Z,19.30
2018-01-14T22:38:41.783Z,19.30
2018-01-14T22:41:09.746Z,19.40
2018-01-14T22:43:37.824Z,19.30
2018-01-14T22:46:05.762Z,19.30
2018-01-14T22:48:33.719Z,19.30
2018-01-14T22:51:01.807Z,19.30
2018-01-14T22:53:29.767Z,19.20
2018-01-14T22:55:57.758Z,19.20
2018-01-14T22:58:25.835Z,19.10
2018-01-14T23:00:53.823Z,19.10
2018-01-14T23:03:21.797Z,19.10
2018-01-14T23:05:50.695Z,19.00
2018-01-14T23:08:19.441Z,19.00
2018-01-14T23:10:47.408Z,19.00
2018-01-14T23:13:15.511Z,19.00
2018-01-14T23:15:43.482Z,18.90
2018-01-14T23:18:11.439Z,19.00
2018-01-14T23:20:39.692Z,19.00
2018-01-14T23:23:07.682Z,18.90
2018-01-14T23:25:35.635Z,18.90
2018-01-14T23:28:03.703Z,18.90
2018-01-14T23:30:31.673Z,18.80
2018-01-14T23:32:59.646Z,18.80
2018-01-14T23:35:27.781Z,18.90
2018-01-14T23:37:56.494Z,19.00
2018-01-14T23:40:24.447Z,18.90
2018-01-14T23:42:53.287Z,19.00
2018-01-14T23:45:21.232Z,18.90
2018-01-14T23:47:49.170Z,18.90
2018-01-14T23:50:17.981Z,18.90
2018-01-14T23:52:45.919Z,18.90
2018-01-14T23:55:14.641Z,18.90
2018-01-14T23:57:42.776Z,18.90
